Time;durP1;ratioP1;P1;durP2;ratioP2;P2;SDS_P1;SDS_P2;PMS_P1;PMS_P2;Temp;Humidity;BMP_temperature;BMP_pressure;BME280_temperature;BME280_humidity;BME280_pressure;Samples;Min_cycle;Max_cycle;Signal;HPM_P1;HPM_P2
2022/10/07 00:02:17;;;;;;;;;;;;;;;21.79;45.32;100445.09;4482364;32;31884;-83
2022/10/07 00:04:45;;;;;;;;;;;;;;;21.92;44.84;100448.44;4483178;32;34283;-84
2022/10/07 00:07:13;;;;;;;;;;;;;;;22.10;44.57;100444.69;4483486;32;34350;-86
2022/10/07 00:09:40;;;;;;;;;;;;;;;22.20;44.26;100451.63;4469496;32;33926;-83
2022/10/07 00:12:08;;;;;;;;;;;;;;;22.34;43.76;100446.13;4483159;32;33345;-86
2022/10/07 00:14:35;;;;;;;;;;;;;;;22.37;43.51;100442.56;4483167;32;34154;-92
2022/10/07 00:17:02;;;;;;;;;;;;;;;22.31;43.64;100439.12;4482310;32;34289;-84
2022/10/07 00:19:31;;;;;;;;;;;;;;;22.26;43.84;100438.31;4483373;32;34596;-89
2022/10/07 00:21:58;;;;;;;;;;;;;;;22.33;43.66;100442.59;4480840;32;34525;-83
2022/10/07 00:24:25;;;;;;;;;;;;;;;22.37;43.60;100439.94;4473095;32;35240;-83
2022/10/07 00:26:53;;;;;;;;;;;;;;;22.31;43.58;100430.31;4483698;32;34009;-84
2022/10/07 00:29:22;;;;;;;;;;;;;;;22.31;43.60;100435.59;4483300;32;34000;-83
2022/10/07 00:31:50;;;;;;;;;;;;;;;22.25;43.72;100433.06;4483628;32;33387;-83
2022/10/07 00:34:23;;;;;;;;;;;;;;;22.38;43.39;100425.81;4469107;32;34432;-84
2022/10/07 00:36:51;;;;;;;;;;;;;;;22.52;42.95;100427.34;4483667;32;34496;-84
2022/10/07 00:39:18;;;;;;;;;;;;;;;22.52;42.95;100429.12;4483092;32;34697;-84
2022/10/07 00:41:49;;;;;;;;;;;;;;;22.48;42.89;100427.44;4483896;32;33221;-92
2022/10/07 00:44:43;;;;;;;;;;;;;;;22.60;42.57;100427.22;4468560;32;34405;-83
2022/10/07 00:47:16;;;;;;;;;;;;;;;22.58;42.48;100424.63;4481047;32;33981;-83
2022/10/07 00:49:48;;;;;;;;;;;;;;;22.50;42.62;100417.69;4483672;32;33906;-84
2022/10/07 00:52:15;;;;;;;;;;;;;;;22.60;42.08;100421.94;4469709;32;34140;-83
2022/10/07 00:54:43;;;;;;;;;;;;;;;22.59;41.74;100425.47;4468960;32;34815;-84
2022/10/07 00:57:11;;;;;;;;;;;;;;;22.68;41.50;100422.66;4483204;32;34127;-85
2022/10/07 00:59:39;;;;;;;;;;;;;;;22.53;41.67;100417.63;4483381;32;34905;-84
2022/10/07 01:02:07;;;;;;;;;;;;;;;22.58;41.45;100416.69;4469319;32;33426;-90
2022/10/07 01:04:35;;;;;;;;;;;;;;;22.45;41.68;100412.47;4478033;32;34908;-83
2022/10/07 01:07:02;;;;;;;;;;;;;;;22.50;41.52;100418.59;4469292;32;35166;-87
2022/10/07 01:09:29;;;;;;;;;;;;;;;22.48;41.50;100416.84;4468972;32;35276;-84
2022/10/07 01:12:05;;;;;;;;;;;;;;;22.52;41.11;100413.25;4469001;32;33480;-83
2022/10/07 01:14:39;;;;;;;;;;;;;;;22.47;41.25;100412.47;4468072;32;32660;-84
2022/10/07 01:17:14;;;;;;;;;;;;;;;22.42;41.30;100409.00;4468934;32;34377;-83
2022/10/07 01:19:47;;;;;;;;;;;;;;;22.30;41.43;100408.31;4468869;32;33966;-84
2022/10/07 01:22:33;;;;;;;;;;;;;;;22.32;41.51;100405.66;4482551;32;33478;-83
2022/10/07 01:25:11;;;;;;;;;;;;;;;22.25;41.49;100412.78;4482744;32;34734;-83
2022/10/07 01:27:39;;;;;;;;;;;;;;;22.17;42.02;100412.03;4483297;32;34394;-83
2022/10/07 01:30:07;;;;;;;;;;;;;;;22.27;42.02;100404.84;4468948;32;33600;-83
2022/10/07 01:32:39;;;;;;;;;;;;;;;22.14;42.25;100409.44;4468489;32;34273;-83
2022/10/07 01:35:11;;;;;;;;;;;;;;;22.18;42.02;100408.50;4468428;32;34343;-83
2022/10/07 01:37:40;;;;;;;;;;;;;;;22.11;42.02;100412.94;4482506;32;33818;-83
2022/10/07 01:40:09;;;;;;;;;;;;;;;22.15;42.01;100408.53;4469337;32;33745;-83
2022/10/07 01:42:36;;;;;;;;;;;;;;;22.24;41.86;100413.69;4468138;32;33058;-83
2022/10/07 01:45:06;;;;;;;;;;;;;;;22.26;41.79;100411.88;4483395;32;34120;-89
2022/10/07 01:47:33;;;;;;;;;;;;;;;21.99;42.47;100414.91;4483102;32;35215;-83
2022/10/07 01:50:00;;;;;;;;;;;;;;;22.14;42.26;100409.44;4482349;32;35077;-85
2022/10/07 01:52:29;;;;;;;;;;;;;;;22.12;42.29;100405.91;4482676;32;33648;-84
2022/10/07 01:55:02;;;;;;;;;;;;;;;22.09;42.43;100403.34;4482884;32;33936;-83
2022/10/07 01:57:39;;;;;;;;;;;;;;;22.09;42.20;100404.19;4482825;32;34171;-83
2022/10/07 02:00:10;;;;;;;;;;;;;;;22.13;41.88;100407.66;4468328;32;33837;-92
2022/10/07 02:02:53;;;;;;;;;;;;;;;22.14;41.83;100409.44;4462714;32;34406;-92
2022/10/07 02:05:30;;;;;;;;;;;;;;;22.11;41.96;100399.75;4468778;32;34312;-83
2022/10/07 02:08:17;;;;;;;;;;;;;;;22.08;42.29;100405.06;4482519;32;34037;-83
2022/10/07 02:10:44;;;;;;;;;;;;;;;21.95;42.58;100405.28;4468614;32;35015;-83
2022/10/07 02:13:15;;;;;;;;;;;;;;;22.05;42.21;100406.91;4482344;32;33919;-84
2022/10/07 02:15:46;;;;;;;;;;;;;;;22.08;42.21;100409.47;4468513;32;34747;-83
2022/10/07 02:18:14;;;;;;;;;;;;;;;21.91;42.62;100408.88;4482338;32;34667;-83
2022/10/07 02:20:43;;;;;;;;;;;;;;;21.72;43.02;100410.88;4482106;32;34250;-87
2022/10/07 02:23:10;;;;;;;;;;;;;;;21.87;42.77;100408.91;4468145;32;33109;-90
2022/10/07 02:25:40;;;;;;;;;;;;;;;21.94;42.66;100404.41;4482269;32;34483;-83
2022/10/07 02:28:08;;;;;;;;;;;;;;;21.84;42.78;100408.94;4468260;32;34382;-83
2022/10/07 02:30:35;;;;;;;;;;;;;;;21.82;42.78;100408.09;4468314;32;34111;-84
2022/10/07 02:33:03;;;;;;;;;;;;;;;21.89;42.76;100403.59;4468078;32;33499;-83
2022/10/07 02:35:50;;;;;;;;;;;;;;;21.94;42.56;100398.28;4467735;32;35234;-83
2022/10/07 02:38:17;;;;;;;;;;;;;;;21.87;42.68;100389.56;4482023;32;35087;-84
2022/10/07 02:40:47;;;;;;;;;;;;;;;21.96;42.30;100405.25;4481915;32;34322;-91
2022/10/07 02:43:27;;;;;;;;;;;;;;;22.00;41.96;100395.53;4482060;32;33960;-84
2022/10/07 02:46:19;;;;;;;;;;;;;;;21.98;42.03;100399.97;4466348;32;33931;-84
2022/10/07 02:48:50;;;;;;;;;;;;;;;21.89;42.24;100400.09;4474325;32;35289;-83
2022/10/07 02:51:18;;;;;;;;;;;;;;;21.93;42.10;100396.50;4467389;32;34959;-84
2022/10/07 02:53:48;;;;;;;;;;;;;;;21.91;42.20;100393.91;4468196;32;34392;-85
2022/10/07 02:56:18;;;;;;;;;;;;;;;21.74;42.71;100395.88;4467500;32;33599;-84
2022/10/07 02:58:46;;;;;;;;;;;;;;;21.81;42.49;100397.53;4467395;32;34307;-84
2022/10/07 03:01:16;;;;;;;;;;;;;;;21.86;42.34;100399.25;4481742;32;33583;-84
2022/10/07 03:03:44;;;;;;;;;;;;;;;21.96;42.09;100396.47;4469814;32;34258;-87
2022/10/07 03:06:12;;;;;;;;;;;;;;;21.93;41.94;100386.81;4470001;32;34996;-84
2022/10/07 03:08:40;;;;;;;;;;;;;;;21.90;41.90;100391.28;4484194;32;35100;-84
2022/10/07 03:11:07;;;;;;;;;;;;;;;21.86;41.79;100390.47;4469908;32;35423;-84
2022/10/07 03:13:34;;;;;;;;;;;;;;;21.85;41.61;100384.28;4484378;32;33135;-89
2022/10/07 03:16:04;;;;;;;;;;;;;;;21.92;41.43;100386.84;4483913;32;33777;-84
2022/10/07 03:18:32;;;;;;;;;;;;;;;21.87;41.46;100386.91;4484133;32;34809;-84
2022/10/07 03:21:00;;;;;;;;;;;;;;;21.80;41.54;100388.75;4484081;32;34412;-85
2022/10/07 03:23:30;;;;;;;;;;;;;;;21.84;41.54;100382.53;4484302;32;33447;-84
2022/10/07 03:25:58;;;;;;;;;;;;;;;21.85;41.44;100384.28;4483768;32;34279;-84
2022/10/07 03:28:26;;;;;;;;;;;;;;;21.78;41.65;100376.47;4483858;32;35317;-92
2022/10/07 03:30:54;;;;;;;;;;;;;;;21.76;41.67;100387.06;4483784;32;34854;-84
2022/10/07 03:33:23;;;;;;;;;;;;;;;21.68;41.66;100391.56;4484224;32;34127;-84
2022/10/07 03:35:51;;;;;;;;;;;;;;;21.68;41.58;100383.66;4483775;32;34040;-84
2022/10/07 03:38:18;;;;;;;;;;;;;;;21.76;41.53;100387.06;4483636;32;34271;-84
2022/10/07 03:40:46;;;;;;;;;;;;;;;21.82;41.26;100388.72;4483875;32;35251;-92
2022/10/07 03:43:13;;;;;;;;;;;;;;;21.62;41.47;100391.62;4483847;32;33202;-92
2022/10/07 03:45:44;;;;;;;;;;;;;;;21.60;41.59;100382.87;4484024;32;33470;-84
2022/10/07 03:48:11;;;;;;;;;;;;;;;21.45;41.98;100388.34;4469225;32;33862;-92
2022/10/07 03:50:38;;;;;;;;;;;;;;;21.58;41.69;100387.28;4483808;32;34770;-90
2022/10/07 03:53:06;;;;;;;;;;;;;;;21.63;41.57;100388.12;4483824;32;34156;-83
2022/10/07 03:55:34;;;;;;;;;;;;;;;21.55;41.40;100384.69;4483667;32;35151;-83
2022/10/07 03:58:01;;;;;;;;;;;;;;;21.42;41.60;100381.34;4483768;32;34832;-83
2022/10/07 04:00:28;;;;;;;;;;;;;;;21.42;41.61;100380.47;4483437;32;33616;-84
2022/10/07 04:02:56;;;;;;;;;;;;;;;21.33;41.96;100371.78;4483027;32;34152;-84
2022/10/07 04:05:23;;;;;;;;;;;;;;;21.35;42.07;100372.63;4482828;32;34276;-84
2022/10/07 04:07:51;;;;;;;;;;;;;;;21.41;41.89;100374.31;4483213;32;34249;-87
2022/10/07 04:10:19;;;;;;;;;;;;;;;21.43;41.70;100369.03;4484086;32;35071;-84
2022/10/07 04:12:50;;;;;;;;;;;;;;;21.32;42.03;100369.97;4483465;32;34211;-87
2022/10/07 04:15:17;;;;;;;;;;;;;;;21.34;42.04;100370.88;4483422;32;33942;-84
2022/10/07 04:17:45;;;;;;;;;;;;;;;21.48;41.73;100369.81;4483088;32;34382;-91
2022/10/07 04:20:14;;;;;;;;;;;;;;;21.41;41.87;100371.69;4482826;32;34863;-88
2022/10/07 04:22:42;;;;;;;;;;;;;;;21.23;42.13;100367.47;4465999;32;33381;-89
2022/10/07 04:27:56;;;;;;;;;;;;;;;21.25;42.07;100360.41;4482965;32;35108;-91
2022/10/07 04:30:25;;;;;;;;;;;;;;;21.20;42.22;100364.84;4482877;32;34044;-91
2022/10/07 04:32:53;;;;;;;;;;;;;;;21.39;41.77;100357.62;4483512;32;34281;-90
2022/10/07 04:35:21;;;;;;;;;;;;;;;21.17;42.01;100361.38;4481742;32;34984;-85
2022/10/07 04:37:52;;;;;;;;;;;;;;;21.25;42.03;100357.78;4482002;32;35310;-84
2022/10/07 04:40:20;;;;;;;;;;;;;;;21.24;42.14;100358.66;4465169;32;34709;-85
2022/10/07 04:45:34;;;;;;;;;;;;;;;21.07;42.59;100356.22;4480796;32;33689;-85
2022/10/07 04:48:04;;;;;;;;;;;;;;;21.19;42.32;100357.84;4481124;32;33880;-85
2022/10/07 04:50:32;;;;;;;;;;;;;;;20.97;42.62;100369.50;4481576;32;33899;-85
2022/10/07 04:53:00;;;;;;;;;;;;;;;21.10;42.54;100372.00;4480939;32;33204;-85
2022/10/07 04:55:28;;;;;;;;;;;;;;;21.13;42.32;100364.03;4482060;32;33737;-88
2022/10/07 04:57:55;;;;;;;;;;;;;;;20.97;42.58;100369.50;4467425;32;34374;-89
2022/10/07 05:00:23;;;;;;;;;;;;;;;21.22;42.05;100371.00;4482575;32;34983;-83
2022/10/07 05:02:51;;;;;;;;;;;;;;;21.08;42.21;100367.62;4483286;32;32849;-85
2022/10/07 05:05:18;;;;;;;;;;;;;;;21.26;41.85;100372.72;4482854;32;32844;-91
2022/10/07 05:07:49;;;;;;;;;;;;;;;21.13;42.07;100371.09;4483431;32;35230;-85
2022/10/07 05:10:18;;;;;;;;;;;;;;;21.23;41.88;100361.31;4469158;32;34476;-88
2022/10/07 05:12:46;;;;;;;;;;;;;;;21.12;42.16;100378.12;4483195;32;33210;-85
2022/10/07 05:15:19;;;;;;;;;;;;;;;21.20;42.06;100377.19;4483274;32;35218;-90
2022/10/07 05:17:47;;;;;;;;;;;;;;;21.09;42.27;100380.78;4483262;32;35152;-85
2022/10/07 05:20:14;;;;;;;;;;;;;;;21.08;42.30;100379.06;4483184;32;34121;-86
2022/10/07 05:22:42;;;;;;;;;;;;;;;20.92;42.61;100387.16;4482634;32;34337;-93
2022/10/07 05:25:09;;;;;;;;;;;;;;;20.95;42.62;100387.09;4466770;32;35131;-85
2022/10/07 05:27:37;;;;;;;;;;;;;;;20.71;43.41;100391.72;4481355;32;34104;-85
2022/10/07 05:30:06;;;;;;;;;;;;;;;20.79;43.23;100389.00;4482773;32;34858;-86
2022/10/07 05:32:33;;;;;;;;;;;;;;;20.79;43.17;100387.25;4481906;32;33979;-91
2022/10/07 05:35:00;;;;;;;;;;;;;;;20.85;43.17;100391.59;4468544;32;32710;-87
2022/10/07 05:37:28;;;;;;;;;;;;;;;21.01;42.88;100392.31;4482929;32;35716;-86
2022/10/07 05:39:55;;;;;;;;;;;;;;;21.03;42.94;100396.69;4482697;32;33541;-91
2022/10/07 05:42:22;;;;;;;;;;;;;;;21.01;43.21;100389.69;4482725;32;33693;-89
2022/10/07 05:44:50;;;;;;;;;;;;;;;21.23;42.69;100388.56;4482327;32;34613;-86
2022/10/07 05:47:19;;;;;;;;;;;;;;;21.08;43.14;100394.00;4483710;32;33959;-91
2022/10/07 05:49:46;;;;;;;;;;;;;;;21.37;42.72;100396.37;4483295;32;34800;-91
2022/10/07 05:52:13;;;;;;;;;;;;;;;21.22;42.98;100392.09;4483357;32;34346;-90
2022/10/07 05:54:41;;;;;;;;;;;;;;;21.21;43.05;100390.31;4469092;32;34237;-90
2022/10/07 05:57:08;;;;;;;;;;;;;;;21.08;43.48;100391.38;4483374;32;34716;-89
2022/10/07 05:59:36;;;;;;;;;;;;;;;21.50;43.05;100390.03;4482681;32;34584;-86
2022/10/07 06:02:03;;;;;;;;;;;;;;;21.30;43.51;100389.37;4483060;32;33788;-90
2022/10/07 06:04:31;;;;;;;;;;;;;;;21.05;44.44;100404.56;4483162;32;35067;-86
2022/10/07 06:07:02;;;;;;;;;;;;;;;21.08;44.45;100396.66;4482914;32;34098;-86
2022/10/07 06:15:03;;;;;;;;;;;;;;;20.86;45.13;100410.03;4483148;32;34154;-87
2022/10/07 06:17:30;;;;;;;;;;;;;;;20.93;45.03;100415.25;4482813;32;34902;-89
2022/10/07 06:19:58;;;;;;;;;;;;;;;20.84;45.67;100419.72;4468456;32;33211;-90
2022/10/07 06:22:25;;;;;;;;;;;;;;;21.01;44.86;100413.41;4482656;32;34125;-86
2022/10/07 06:24:57;;;;;;;;;;;;;;;20.84;45.88;100417.09;4482771;32;34092;-90
2022/10/07 06:27:24;;;;;;;;;;;;;;;20.84;46.07;100414.47;4482925;32;34136;-91
2022/10/07 06:29:53;;;;;;;;;;;;;;;21.26;45.13;100414.91;4482542;32;34774;-90
2022/10/07 06:32:20;;;;;;;;;;;;;;;21.37;44.76;100412.19;4482793;32;33901;-87
2022/10/07 06:34:48;;;;;;;;;;;;;;;21.07;45.79;100402.81;4482572;32;35157;-86
2022/10/07 06:37:15;;;;;;;;;;;;;;;21.60;44.77;100409.28;4484442;32;35125;-86
2022/10/07 06:39:42;;;;;;;;;;;;;;;21.22;45.33;100410.56;4484640;32;34526;-86
2022/10/07 06:42:09;;;;;;;;;;;;;;;21.27;45.38;100403.47;4484512;32;33320;-86
2022/10/07 06:44:37;;;;;;;;;;;;;;;21.22;45.72;100407.91;4484681;32;34610;-90
2022/10/07 06:47:04;;;;;;;;;;;;;;;21.36;45.50;100403.37;4484658;32;34472;-90
2022/10/07 06:49:38;;;;;;;;;;;;;;;21.67;45.17;100403.03;4484828;32;33389;-91
2022/10/07 06:52:05;;;;;;;;;;;;;;;21.78;43.79;100393.19;4484798;32;34120;-90
2022/10/07 06:54:33;;;;;;;;;;;;;;;21.42;45.70;100396.31;4484514;32;35200;-86
2022/10/07 06:57:00;;;;;;;;;;;;;;;21.44;45.60;100402.41;4484577;32;33754;-86
2022/10/07 06:59:28;;;;;;;;;;;;;;;21.36;45.13;100399.87;4484296;32;34506;-91
2022/10/07 07:01:56;;;;;;;;;;;;;;;21.83;44.38;100401.94;4484584;32;34096;-90
2022/10/07 07:04:25;;;;;;;;;;;;;;;21.64;44.93;100400.44;4484637;32;34346;-90
2022/10/07 07:06:52;;;;;;;;;;;;;;;21.02;46.86;100394.06;4484414;32;33762;-90
2022/10/07 07:09:21;;;;;;;;;;;;;;;21.32;45.53;100399.00;4484474;32;33582;-86
2022/10/07 07:11:49;;;;;;;;;;;;;;;21.53;45.36;100397.91;4484512;32;33474;-90
2022/10/07 07:14:22;;;;;;;;;;;;;;;21.18;45.30;100410.63;4484437;32;34877;-85
2022/10/07 07:16:51;;;;;;;;;;;;;;;20.23;47.56;100409.66;4484434;32;34069;-89
2022/10/07 07:19:18;;;;;;;;;;;;;;;21.59;45.15;100402.22;4484397;32;34722;-86
2022/10/07 07:21:45;;;;;;;;;;;;;;;21.36;45.55;100398.09;4484105;32;33753;-90
2022/10/07 07:24:18;;;;;;;;;;;;;;;20.87;46.85;100400.34;4484125;32;34196;-90
2022/10/07 07:26:46;;;;;;;;;;;;;;;21.46;45.08;100405.91;4484110;32;33868;-90
2022/10/07 07:29:15;;;;;;;;;;;;;;;22.01;44.24;100400.81;4484348;32;34071;-91
2022/10/07 07:31:43;;;;;;;;;;;;;;;21.48;45.30;100407.66;4484362;32;33317;-86
2022/10/07 07:34:11;;;;;;;;;;;;;;;20.83;47.22;100407.41;4484279;32;34141;-86
2022/10/07 07:36:42;;;;;;;;;;;;;;;21.53;45.68;100404.97;4470146;32;33564;-91
2022/10/07 07:39:11;;;;;;;;;;;;;;;20.83;47.28;100403.91;4470243;32;34019;-89
2022/10/07 07:41:40;;;;;;;;;;;;;;;21.91;45.31;100404.47;4469607;32;33353;-90
2022/10/07 07:44:10;;;;;;;;;;;;;;;21.84;45.30;100400.16;4484352;32;34265;-91
2022/10/07 07:46:40;;;;;;;;;;;;;;;22.18;43.76;100397.94;4470218;32;34262;-89
2022/10/07 07:49:09;;;;;;;;;;;;;;;22.06;44.52;100400.72;4483706;32;34097;-91
2022/10/07 07:51:37;;;;;;;;;;;;;;;22.30;44.52;100397.72;4484313;32;33464;-91
2022/10/07 07:54:05;;;;;;;;;;;;;;;22.47;44.96;100399.25;4483853;32;34188;-88
2022/10/07 07:56:32;;;;;;;;;;;;;;;22.62;44.89;100391.06;4484094;32;35140;-88
2022/10/07 07:59:00;;;;;;;;;;;;;;;22.31;45.63;100401.25;4483831;32;34264;-91
2022/10/07 08:01:30;;;;;;;;;;;;;;;22.92;43.18;100391.44;4483769;32;34076;-90
2022/10/07 08:03:59;;;;;;;;;;;;;;;22.65;44.21;100398.06;4484062;32;33658;-91
2022/10/07 08:06:27;;;;;;;;;;;;;;;22.88;44.32;100387.97;4484326;32;35182;-90
2022/10/07 08:08:58;;;;;;;;;;;;;;;23.02;43.68;100388.59;4469822;32;33876;-86
2022/10/07 08:11:26;;;;;;;;;;;;;;;23.31;43.30;100372.16;4484177;32;33511;-91
2022/10/07 08:13:55;;;;;;;;;;;;;;;22.66;43.53;100379.53;4483756;32;34970;-91
2022/10/07 08:16:23;;;;;;;;;;;;;;;23.51;42.33;100374.41;4483843;32;34455;-91
2022/10/07 08:18:51;;;;;;;;;;;;;;;23.89;40.22;100371.84;4484104;32;34423;-90
2022/10/07 08:21:19;;;;;;;;;;;;;;;23.43;42.74;100370.19;4469522;32;34062;-86
2022/10/07 08:23:47;;;;;;;;;;;;;;;23.40;42.08;100372.87;4469714;32;33781;-90
2022/10/07 08:26:15;;;;;;;;;;;;;;;22.13;45.03;100380.38;4469575;32;34277;-86
2022/10/07 08:28:42;;;;;;;;;;;;;;;23.01;42.80;100372.78;4483740;32;34169;-86
2022/10/07 08:31:11;;;;;;;;;;;;;;;22.86;42.88;100375.66;4484044;32;33598;-86
2022/10/07 08:33:39;;;;;;;;;;;;;;;22.83;42.91;100371.31;4469797;32;33584;-89
2022/10/07 08:36:07;;;;;;;;;;;;;;;22.19;44.88;100381.19;4483639;32;34307;-90
2022/10/07 08:38:35;;;;;;;;;;;;;;;21.45;46.07;100375.16;4483375;32;34260;-85
2022/10/07 08:41:11;;;;;;;;;;;;;;;21.33;46.19;100371.78;4469473;32;32993;-86
2022/10/07 08:43:40;;;;;;;;;;;;;;;21.82;45.07;100376.44;4469332;32;34093;-91
2022/10/07 08:46:09;;;;;;;;;;;;;;;22.70;43.56;100370.66;4483490;32;34265;-85
2022/10/07 08:48:37;;;;;;;;;;;;;;;22.99;43.48;100371.91;4469790;32;34292;-85
2022/10/07 08:51:07;;;;;;;;;;;;;;;23.08;43.03;100361.19;4483523;32;33277;-90
2022/10/07 08:53:35;;;;;;;;;;;;;;;23.23;42.71;100355.59;4483543;32;34227;-92
2022/10/07 08:56:18;;;;;;;;;;;;;;;22.70;44.13;100360.09;4469555;32;34877;-86
2022/10/07 08:58:55;;;;;;;;;;;;;;;23.29;41.82;100354.56;4468509;32;34586;-90
2022/10/07 09:01:31;;;;;;;;;;;;;;;22.91;42.94;100355.28;4483349;32;32902;-87
2022/10/07 09:04:01;;;;;;;;;;;;;;;23.51;41.66;100347.06;4483567;32;34876;-86
2022/10/07 09:06:30;;;;;;;;;;;;;;;23.02;42.98;100348.06;4483476;32;35986;-90
2022/10/07 09:08:58;;;;;;;;;;;;;;;23.41;42.37;100343.75;4469333;32;34808;-86
2022/10/07 09:11:25;;;;;;;;;;;;;;;23.07;42.78;100346.22;4469691;32;34156;-89
2022/10/07 09:13:57;;;;;;;;;;;;;;;23.13;42.80;100343.44;4483588;32;34989;-89
2022/10/07 09:16:34;;;;;;;;;;;;;;;23.41;41.46;100341.13;4469423;32;35005;-91
2022/10/07 09:19:02;;;;;;;;;;;;;;;22.96;43.05;100333.19;4469413;32;34145;-86
2022/10/07 09:21:41;;;;;;;;;;;;;;;22.86;43.36;100341.28;4482961;32;34025;-89
2022/10/07 09:24:19;;;;;;;;;;;;;;;23.12;43.19;100339.06;4469515;32;34630;-91
2022/10/07 09:26:46;;;;;;;;;;;;;;;23.84;41.63;100336.69;4483247;32;33869;-86
2022/10/07 09:29:15;;;;;;;;;;;;;;;24.57;40.90;100326.06;4469002;32;34445;-90
2022/10/07 09:31:43;;;;;;;;;;;;;;;24.41;40.35;100325.59;4469141;32;33503;-86
2022/10/07 09:34:26;;;;;;;;;;;;;;;24.85;40.57;100318.22;4483129;32;34048;-92
2022/10/07 09:37:10;;;;;;;;;;;;;;;24.46;40.63;100319.25;4483039;32;34171;-87
2022/10/07 09:39:37;;;;;;;;;;;;;;;24.80;39.26;100314.84;4483304;32;34361;-91
2022/10/07 09:42:07;;;;;;;;;;;;;;;23.84;41.77;100320.78;4483430;32;33235;-86
2022/10/07 09:44:34;;;;;;;;;;;;;;;24.17;40.87;100319.97;4483114;32;33788;-88
2022/10/07 09:47:18;;;;;;;;;;;;;;;24.57;41.02;100308.37;4469154;32;34072;-87
2022/10/07 09:49:48;;;;;;;;;;;;;;;24.69;41.14;100300.09;4468912;32;35002;-88
2022/10/07 09:52:16;;;;;;;;;;;;;;;24.55;40.77;100304.91;4469017;32;32699;-87
2022/10/07 09:54:44;;;;;;;;;;;;;;;24.44;40.13;100297.25;4483011;32;34992;-86
2022/10/07 09:57:24;;;;;;;;;;;;;;;25.11;39.04;100293.66;4482842;32;34303;-89
2022/10/07 09:59:53;;;;;;;;;;;;;;;24.45;40.88;100290.16;4483431;32;35079;-86
2022/10/07 10:02:21;;;;;;;;;;;;;;;25.17;39.89;100283.75;4468885;32;33202;-86
2022/10/07 10:04:53;;;;;;;;;;;;;;;24.00;40.72;100291.22;4468760;32;35037;-90
2022/10/07 10:07:34;;;;;;;;;;;;;;;25.08;38.85;100277.78;4482874;32;34403;-92
2022/10/07 10:10:03;;;;;;;;;;;;;;;25.34;38.44;100275.25;4468116;32;34073;-92
2022/10/07 10:12:36;;;;;;;;;;;;;;;25.26;38.97;100271.09;4468754;32;33965;-90
2022/10/07 10:15:23;;;;;;;;;;;;;;;24.41;40.42;100275.25;4469046;32;33968;-92
2022/10/07 10:17:50;;;;;;;;;;;;;;;25.10;38.90;100262.72;4481550;32;34393;-86
2022/10/07 10:20:27;;;;;;;;;;;;;;;23.76;41.26;100271.50;4465929;32;34578;-90
2022/10/07 10:22:54;;;;;;;;;;;;;;;24.26;40.31;100261.44;4482584;32;34835;-90
2022/10/07 10:28:20;;;;;;;;;;;;;;;24.60;40.46;100271.19;4482735;32;33927;-86
2022/10/07 10:30:51;;;;;;;;;;;;;;;25.54;38.12;100261.41;4482304;32;35049;-93
2022/10/07 10:33:21;;;;;;;;;;;;;;;25.90;37.84;100253.19;4468427;32;33325;-85
2022/10/07 10:35:53;;;;;;;;;;;;;;;26.12;37.23;100248.88;4482611;32;33967;-92
2022/10/07 10:38:23;;;;;;;;;;;;;;;25.48;38.43;100248.28;4468396;32;33549;-93
2022/10/07 10:40:54;;;;;;;;;;;;;;;24.70;40.13;100251.47;4482201;32;34349;-86
2022/10/07 10:43:26;;;;;;;;;;;;;;;25.45;38.49;100249.25;4482370;32;33916;-86
2022/10/07 10:46:03;;;;;;;;;;;;;;;25.88;39.60;100244.41;4467977;32;33370;-86
2022/10/07 10:48:42;;;;;;;;;;;;;;;25.46;38.25;100236.87;4482231;32;35192;-88
2022/10/07 10:51:15;;;;;;;;;;;;;;;26.16;36.86;100229.25;4466578;32;33727;-91
2022/10/07 10:53:50;;;;;;;;;;;;;;;26.65;37.03;100224.91;4466557;32;33353;-87
2022/10/07 10:56:27;;;;;;;;;;;;;;;25.50;38.98;100221.72;4466417;32;35166;-87
2022/10/07 10:58:57;;;;;;;;;;;;;;;26.14;38.77;100209.00;4466321;32;33955;-85
2022/10/07 11:01:28;;;;;;;;;;;;;;;26.30;37.96;100214.63;4481858;32;34630;-88
2022/10/07 11:04:09;;;;;;;;;;;;;;;26.41;36.55;100202.69;4481932;32;33032;-89
2022/10/07 11:06:37;;;;;;;;;;;;;;;26.72;37.24;100195.41;4482294;32;34293;-92
2022/10/07 11:09:04;;;;;;;;;;;;;;;26.61;36.47;100194.00;4481509;32;35044;-87
2022/10/07 11:11:31;;;;;;;;;;;;;;;24.97;38.96;100210.00;4481893;32;33834;-88
2022/10/07 11:14:00;;;;;;;;;;;;;;;25.85;38.07;100194.91;4481884;32;33506;-87
2022/10/07 11:16:35;;;;;;;;;;;;;;;25.98;39.50;100191.81;4467504;32;34984;-90
2022/10/07 11:19:06;;;;;;;;;;;;;;;25.98;36.82;100186.50;4467535;32;35171;-85
2022/10/07 11:21:36;;;;;;;;;;;;;;;26.58;36.82;100177.31;4481639;31;34973;-88
2022/10/07 11:24:13;;;;;;;;;;;;;;;26.86;36.50;100177.16;4483730;32;34135;-86
2022/10/07 11:26:42;;;;;;;;;;;;;;;26.61;36.21;100167.41;4469984;32;34137;-86
2022/10/07 11:29:14;;;;;;;;;;;;;;;26.61;37.95;100172.72;4469724;32;35160;-86
2022/10/07 11:31:43;;;;;;;;;;;;;;;26.00;37.09;100152.78;4469775;32;34337;-88
2022/10/07 11:34:15;;;;;;;;;;;;;;;26.62;35.75;100153.19;4469835;32;33534;-87
2022/10/07 11:36:54;;;;;;;;;;;;;;;25.48;36.95;100150.94;4469831;32;34417;-86
2022/10/07 11:39:22;;;;;;;;;;;;;;;26.28;36.45;100150.00;4469464;32;35455;-85
2022/10/07 11:41:55;;;;;;;;;;;;;;;25.95;36.73;100147.66;4469921;32;34151;-85
2022/10/07 11:44:25;;;;;;;;;;;;;;;24.71;36.37;100155.06;4484080;32;33326;-88
2022/10/07 11:46:53;;;;;;;;;;;;;;;25.04;36.65;100139.06;4484131;32;34940;-87
2022/10/07 11:49:54;;;;;;;;;;;;;;;25.26;36.73;100130.44;4478935;32;34286;-90
2022/10/07 11:52:26;;;;;;;;;;;;;;;25.63;36.70;100127.44;4463071;32;34369;-88
2022/10/07 11:55:01;;;;;;;;;;;;;;;25.69;38.64;100114.84;4469865;32;33195;-88
2022/10/07 11:57:30;;;;;;;;;;;;;;;24.47;39.42;100126.59;4483921;32;33879;-91
2022/10/07 11:59:58;;;;;;;;;;;;;;;25.46;38.59;100112.97;4469042;32;35240;-88
2022/10/07 12:02:29;;;;;;;;;;;;;;;26.04;37.94;100117.22;4467784;32;34222;-87
2022/10/07 12:04:58;;;;;;;;;;;;;;;26.06;36.47;100116.22;4482332;32;33139;-87
2022/10/07 12:07:31;;;;;;;;;;;;;;;25.80;37.57;100097.66;4476774;32;33864;-86
2022/10/07 12:09:58;;;;;;;;;;;;;;;24.94;39.19;100108.44;4470059;32;34339;-85
2022/10/07 12:12:41;;;;;;;;;;;;;;;25.07;37.35;100093.84;4482568;32;34149;-86
2022/10/07 12:15:28;;;;;;;;;;;;;;;24.90;37.40;100094.37;4483333;32;34189;-84
2022/10/07 12:17:56;;;;;;;;;;;;;;;25.69;36.16;100088.28;4483541;32;34149;-89
2022/10/07 12:20:43;;;;;;;;;;;;;;;25.88;36.86;100082.34;4465280;32;33984;-90
2022/10/07 12:23:27;;;;;;;;;;;;;;;26.17;37.15;100082.13;4466220;32;35341;-86
2022/10/07 12:25:55;;;;;;;;;;;;;;;26.24;35.17;100077.47;4467328;32;34151;-86
2022/10/07 12:28:22;;;;;;;;;;;;;;;26.24;34.88;100071.28;4474708;32;34388;-86
2022/10/07 12:30:50;;;;;;;;;;;;;;;26.11;35.01;100071.75;4482768;32;35242;-90
2022/10/07 12:33:25;;;;;;;;;;;;;;;25.61;35.99;100065.53;4482658;32;34789;-89
2022/10/07 12:35:52;;;;;;;;;;;;;;;26.34;35.74;100056.75;4482073;32;33979;-89
2022/10/07 12:38:22;;;;;;;;;;;;;;;26.24;36.37;100061.53;4468587;32;34737;-89
2022/10/07 12:40:51;;;;;;;;;;;;;;;26.10;35.21;100058.50;4468842;32;33794;-85
2022/10/07 12:43:23;;;;;;;;;;;;;;;26.36;36.94;100054.88;4483485;32;34911;-90
2022/10/07 12:45:50;;;;;;;;;;;;;;;26.40;36.12;100059.16;4469060;32;33323;-89
2022/10/07 12:48:19;;;;;;;;;;;;;;;26.30;35.19;100057.78;4483040;32;33979;-89
2022/10/07 12:50:46;;;;;;;;;;;;;;;26.06;35.85;100057.75;4482598;32;33973;-86
2022/10/07 12:53:14;;;;;;;;;;;;;;;25.21;36.92;100049.19;4482394;32;34387;-88
2022/10/07 12:55:43;;;;;;;;;;;;;;;26.29;35.53;100045.41;4482187;32;34363;-86
2022/10/07 13:01:35;;;;;;;;;;;;;;;26.56;35.53;100031.09;4480433;32;34286;-86
2022/10/07 13:04:05;;;;;;;;;;;;;;;26.20;36.37;100036.84;4480913;32;34895;-86
2022/10/07 13:06:39;;;;;;;;;;;;;;;26.26;37.19;100034.91;4482422;32;34152;-90
2022/10/07 13:09:15;;;;;;;;;;;;;;;26.27;35.91;100028.66;4465895;32;33799;-85